createdAt,value
2023-04-28T00:01:04.733Z,14.46
2023-04-28T00:03:38.072Z,14.43
2023-04-28T00:06:12.056Z,14.42
2023-04-28T00:08:44.760Z,14.37
2023-04-28T00:11:17.488Z,14.33
2023-04-28T00:13:51.950Z,14.27
2023-04-28T00:16:25.170Z,14.24
2023-04-28T00:18:58.684Z,14.26
2023-04-28T00:21:32.423Z,14.29
2023-04-28T00:24:05.772Z,14.29
2023-04-28T00:26:40.417Z,14.26
2023-04-28T00:29:13.375Z,14.29
2023-04-28T00:31:47.358Z,14.32
2023-04-28T00:34:20.041Z,14.32
2023-04-28T00:36:53.064Z,14.28
2023-04-28T00:39:28.055Z,14.26
2023-04-28T00:42:02.419Z,14.27
2023-04-28T00:44:35.717Z,14.26
2023-04-28T00:47:10.680Z,14.20
2023-04-28T00:49:43.558Z,14.14
2023-04-28T00:52:16.983Z,14.08
2023-04-28T00:54:50.240Z,14.04
2023-04-28T00:57:23.792Z,14.03
2023-04-28T00:59:57.053Z,13.99
2023-04-28T01:02:30.998Z,13.89
2023-04-28T01:05:04.420Z,13.79
2023-04-28T01:07:39.371Z,13.74
2023-04-28T01:10:13.361Z,13.74
2023-04-28T01:12:46.553Z,13.77
2023-04-28T01:15:21.587Z,13.81
2023-04-28T01:17:56.168Z,13.88
2023-04-28T01:20:29.107Z,13.96
2023-04-28T01:23:02.266Z,14.04
2023-04-28T01:25:36.064Z,14.04
2023-04-28T01:28:09.858Z,13.98
2023-04-28T01:30:42.687Z,13.97
2023-04-28T01:33:15.956Z,13.98
2023-04-28T01:35:48.729Z,13.97
2023-04-28T01:38:21.868Z,13.98
2023-04-28T01:40:58.761Z,13.97
2023-04-28T01:43:31.775Z,13.98
2023-04-28T01:46:04.837Z,13.97
2023-04-28T01:48:38.255Z,13.91
2023-04-28T01:51:11.342Z,13.88
2023-04-28T01:53:44.678Z,13.83
2023-04-28T01:56:17.790Z,13.83
2023-04-28T01:58:51.083Z,13.81
2023-04-28T02:01:24.037Z,13.79
2023-04-28T02:03:57.300Z,13.78
2023-04-28T02:06:30.388Z,13.76
2023-04-28T02:09:03.215Z,13.75
2023-04-28T02:11:37.802Z,13.66
2023-04-28T02:14:10.995Z,13.59
2023-04-28T02:16:43.953Z,13.59
2023-04-28T02:19:17.671Z,13.52
2023-04-28T02:21:50.693Z,13.48
2023-04-28T02:24:23.500Z,13.43
2023-04-28T02:26:56.512Z,13.40
2023-04-28T02:29:32.119Z,13.33
2023-04-28T02:32:05.294Z,13.37
2023-04-28T02:34:38.353Z,13.47
2023-04-28T02:37:12.940Z,13.55
2023-04-28T02:39:46.607Z,13.59
2023-04-28T02:42:19.648Z,13.64
2023-04-28T02:44:52.520Z,13.64
2023-04-28T02:47:25.518Z,13.67
2023-04-28T02:49:58.254Z,13.72
2023-04-28T02:52:33.287Z,13.70
2023-04-28T02:55:07.300Z,13.73
2023-04-28T02:57:40.119Z,13.77
2023-04-28T03:00:14.852Z,13.87
2023-04-28T03:02:49.584Z,13.96
2023-04-28T03:05:25.127Z,14.03
2023-04-28T03:07:58.090Z,14.11
2023-04-28T03:10:31.538Z,14.18
2023-04-28T03:13:05.628Z,14.24
2023-04-28T03:15:38.519Z,14.27
2023-04-28T03:18:11.444Z,14.27
2023-04-28T03:20:44.443Z,14.32
2023-04-28T03:23:17.348Z,14.34
2023-04-28T03:25:50.331Z,14.33
2023-04-28T03:28:23.191Z,14.35
2023-04-28T03:30:56.432Z,14.28
2023-04-28T03:33:29.585Z,14.16
2023-04-28T03:36:02.731Z,14.15
2023-04-28T03:38:35.772Z,14.16
2023-04-28T03:41:08.670Z,14.20
2023-04-28T03:43:43.192Z,14.24
2023-04-28T03:46:34.952Z,14.28
2023-04-28T03:49:07.944Z,14.31
2023-04-28T03:51:41.363Z,14.34
2023-04-28T03:54:14.773Z,14.35
2023-04-28T03:56:48.389Z,14.40
2023-04-28T03:59:21.270Z,14.43
2023-04-28T04:01:54.745Z,14.47
2023-04-28T04:04:27.614Z,14.54
2023-04-28T04:07:02.354Z,14.60
2023-04-28T04:09:35.346Z,14.63
2023-04-28T04:12:09.525Z,14.67
2023-04-28T04:14:42.276Z,14.70
2023-04-28T04:17:15.344Z,14.73
2023-04-28T04:19:48.157Z,14.77
2023-04-28T04:22:20.956Z,14.82
2023-04-28T04:24:53.810Z,14.86
2023-04-28T04:27:27.652Z,14.88
2023-04-28T04:30:01.065Z,14.91
2023-04-28T04:32:34.003Z,14.94
2023-04-28T04:35:07.508Z,14.96
2023-04-28T04:37:40.541Z,15.00
2023-04-28T04:40:13.796Z,15.02
2023-04-28T04:42:48.268Z,15.06
2023-04-28T04:45:22.786Z,15.10
2023-04-28T04:47:56.516Z,15.14
2023-04-28T04:50:29.443Z,15.22
2023-04-28T04:53:02.363Z,15.29
2023-04-28T04:55:35.375Z,15.39
2023-04-28T04:58:08.636Z,15.48
2023-04-28T05:00:44.785Z,15.56
2023-04-28T05:03:18.463Z,15.64
2023-04-28T05:05:51.594Z,15.70
2023-04-28T05:08:26.373Z,15.77
2023-04-28T05:10:59.365Z,15.84
2023-04-28T05:13:32.238Z,15.94
2023-04-28T05:16:07.665Z,16.00
2023-04-28T05:18:57.771Z,16.05
2023-04-28T05:21:31.366Z,16.13
2023-04-28T05:24:04.753Z,16.17
2023-04-28T05:26:38.540Z,16.21
2023-04-28T05:29:13.081Z,16.23
2023-04-28T05:31:46.388Z,16.27
2023-04-28T05:34:19.885Z,16.28
2023-04-28T05:36:54.185Z,16.31
2023-04-28T05:39:28.868Z,16.33
2023-04-28T05:42:04.734Z,16.37
2023-04-28T05:44:37.572Z,16.38
2023-04-28T05:47:10.648Z,16.41
2023-04-28T05:49:43.750Z,16.42
2023-04-28T05:52:16.782Z,16.42
2023-04-28T05:54:49.919Z,16.42
2023-04-28T05:57:23.131Z,16.42
2023-04-28T05:59:56.509Z,16.43
2023-04-28T06:02:29.599Z,16.45
2023-04-28T06:05:03.099Z,16.48
2023-04-28T06:07:37.002Z,16.46
2023-04-28T06:10:11.824Z,16.46
2023-04-28T06:12:45.019Z,16.48
2023-04-28T06:15:18.038Z,16.54
2023-04-28T06:17:51.608Z,16.60
2023-04-28T06:20:24.545Z,16.69
2023-04-28T06:22:59.144Z,16.78
2023-04-28T06:25:33.013Z,16.86
2023-04-28T06:28:07.697Z,16.92
2023-04-28T06:30:40.664Z,16.99
2023-04-28T06:33:13.383Z,17.06
2023-04-28T06:35:46.864Z,17.12
2023-04-28T06:38:21.129Z,17.16
2023-04-28T06:40:54.117Z,17.17
2023-04-28T06:43:27.668Z,17.19
2023-04-28T06:46:14.681Z,17.21
2023-04-28T06:48:48.047Z,17.23
2023-04-28T06:51:21.455Z,17.28
2023-04-28T06:53:54.236Z,17.30
2023-04-28T06:56:27.753Z,17.30
2023-04-28T06:59:01.748Z,17.32
2023-04-28T07:01:35.014Z,17.35
2023-04-28T07:04:07.950Z,17.40
2023-04-28T07:06:41.710Z,17.46
2023-04-28T07:09:16.224Z,17.53
2023-04-28T07:11:49.119Z,17.61
2023-04-28T07:14:22.107Z,17.68
2023-04-28T07:16:55.194Z,17.74
2023-04-28T07:19:28.235Z,17.77
2023-04-28T07:22:01.249Z,17.80
2023-04-28T07:24:34.329Z,17.86
2023-04-28T07:27:07.208Z,17.90
2023-04-28T07:29:40.392Z,17.98
2023-04-28T07:32:13.516Z,18.02
2023-04-28T07:34:46.830Z,18.07
2023-04-28T07:37:20.203Z,18.14
2023-04-28T07:39:53.066Z,18.23
2023-04-28T07:42:27.761Z,18.33
2023-04-28T07:45:00.672Z,18.41
2023-04-28T07:47:34.016Z,18.52
2023-04-28T07:50:08.354Z,18.63
2023-04-28T07:52:40.346Z,18.74
2023-04-28T07:55:13.310Z,18.88
2023-04-28T07:57:47.129Z,19.00
2023-04-28T08:00:20.346Z,19.15
2023-04-28T08:02:53.412Z,19.35
2023-04-28T08:05:26.690Z,19.51
2023-04-28T08:08:01.209Z,19.63
2023-04-28T08:10:33.246Z,19.74
2023-04-28T08:13:06.186Z,19.81
2023-04-28T08:15:39.249Z,19.79
2023-04-28T08:18:12.350Z,19.74
2023-04-28T08:20:45.776Z,19.73
2023-04-28T08:23:18.651Z,19.80
2023-04-28T08:25:52.411Z,19.91
2023-04-28T08:28:25.605Z,20.00
2023-04-28T08:30:58.994Z,20.08
2023-04-28T08:33:32.229Z,20.11
2023-04-28T08:36:05.684Z,20.18
2023-04-28T08:38:39.544Z,20.27
2023-04-28T08:41:15.320Z,20.34
2023-04-28T08:43:48.693Z,20.36
2023-04-28T08:46:23.417Z,20.37
2023-04-28T08:49:02.169Z,20.38
2023-04-28T08:51:42.376Z,20.34
2023-04-28T08:54:26.237Z,20.30
2023-04-28T08:56:52.428Z,20.36
2023-04-28T08:59:25.523Z,20.47
2023-04-28T09:01:58.853Z,20.63
2023-04-28T09:04:32.429Z,20.74
2023-04-28T09:07:14.545Z,20.85
2023-04-28T09:09:47.577Z,20.90
2023-04-28T09:12:22.189Z,20.89
2023-04-28T09:14:59.773Z,20.84
2023-04-28T09:17:32.780Z,20.77
2023-04-28T09:20:08.170Z,20.66
2023-04-28T09:22:41.596Z,20.58
2023-04-28T09:25:14.984Z,20.58
2023-04-28T09:27:47.997Z,20.56
2023-04-28T09:30:21.743Z,20.55
2023-04-28T09:33:11.262Z,20.52
2023-04-28T09:35:46.107Z,20.47
2023-04-28T09:38:20.322Z,20.40
2023-04-28T09:41:02.815Z,20.36
2023-04-28T09:43:37.439Z,20.35
2023-04-28T09:46:10.217Z,20.32
2023-04-28T09:48:45.062Z,20.32
2023-04-28T09:51:22.046Z,20.29
2023-04-28T09:53:54.886Z,20.23
2023-04-28T09:56:30.305Z,20.15
2023-04-28T09:59:04.376Z,20.09
2023-04-28T10:01:42.343Z,20.00
2023-04-28T10:04:15.620Z,19.89
2023-04-28T10:06:48.776Z,19.73
2023-04-28T10:09:24.840Z,19.58
2023-04-28T10:11:58.080Z,19.46
2023-04-28T10:14:32.587Z,19.33
2023-04-28T10:17:07.084Z,19.18
2023-04-28T10:19:41.029Z,19.05
2023-04-28T10:23:00.021Z,18.91
2023-04-28T10:25:36.781Z,18.79
2023-04-28T10:28:11.367Z,18.66
2023-04-28T10:30:44.294Z,18.56
2023-04-28T10:33:22.160Z,18.51
2023-04-28T10:35:55.154Z,18.49
2023-04-28T10:38:27.898Z,18.51
2023-04-28T10:41:03.617Z,18.56
2023-04-28T10:43:39.942Z,18.62
2023-04-28T10:46:13.143Z,18.74
2023-04-28T10:48:54.346Z,18.89
2023-04-28T10:51:30.435Z,19.08
2023-04-28T10:54:10.554Z,19.29
2023-04-28T10:56:48.225Z,19.43
2023-04-28T10:59:28.705Z,19.49
2023-04-28T11:02:21.361Z,19.55
2023-04-28T11:05:12.836Z,19.58
2023-04-28T11:08:21.986Z,19.58
2023-04-28T11:11:20.354Z,19.60
2023-04-28T11:13:54.938Z,19.63
2023-04-28T11:16:28.250Z,19.69
2023-04-28T11:19:05.131Z,19.70
2023-04-28T11:21:38.232Z,19.73
2023-04-28T11:24:11.814Z,19.73
2023-04-28T11:26:45.108Z,19.74
2023-04-28T11:29:18.184Z,19.76
2023-04-28T11:31:54.488Z,19.76
2023-04-28T11:34:27.642Z,19.74
2023-04-28T11:37:00.766Z,19.65
2023-04-28T11:39:35.425Z,19.56
2023-04-28T11:42:12.822Z,19.40
2023-04-28T11:44:55.302Z,19.32
2023-04-28T11:47:33.085Z,19.29
2023-04-28T11:50:06.191Z,19.23
2023-04-28T11:52:41.614Z,19.18
2023-04-28T11:55:20.139Z,19.15
2023-04-28T11:58:14.472Z,19.12
2023-04-28T12:00:47.727Z,19.16
2023-04-28T12:03:21.186Z,19.23
2023-04-28T12:05:54.292Z,19.31
2023-04-28T12:08:31.363Z,19.39
2023-04-28T12:11:13.043Z,19.43
2023-04-28T12:13:46.410Z,19.41
2023-04-28T12:16:24.344Z,19.36
2023-04-28T12:19:02.740Z,19.27
2023-04-28T12:21:38.042Z,19.18
2023-04-28T12:24:19.364Z,19.13
2023-04-28T12:26:52.068Z,19.09
2023-04-28T12:29:46.216Z,19.06
2023-04-28T12:32:20.657Z,19.04
2023-04-28T12:34:53.622Z,18.99
2023-04-28T12:37:26.413Z,18.97
2023-04-28T12:39:59.385Z,18.94
2023-04-28T12:42:32.438Z,18.95
2023-04-28T12:45:05.887Z,18.96
2023-04-28T12:47:40.424Z,19.00
2023-04-28T12:50:14.019Z,19.03
2023-04-28T12:52:47.108Z,19.05
2023-04-28T12:55:20.139Z,19.05
2023-04-28T12:57:52.998Z,19.06
2023-04-28T13:00:26.575Z,19.07
2023-04-28T13:03:00.249Z,19.09
2023-04-28T13:05:35.291Z,19.09
2023-04-28T13:08:08.514Z,19.07
2023-04-28T13:10:42.155Z,19.03
2023-04-28T13:13:15.154Z,19.05
2023-04-28T13:15:48.237Z,19.11
2023-04-28T13:18:21.370Z,19.20
2023-04-28T13:20:54.309Z,19.27
2023-04-28T13:23:27.197Z,19.24
2023-04-28T13:26:00.044Z,19.21
2023-04-28T13:28:33.439Z,19.12
2023-04-28T13:31:06.707Z,19.01
2023-04-28T13:33:39.670Z,18.86
2023-04-28T13:36:13.159Z,18.75
2023-04-28T13:38:47.866Z,18.66
2023-04-28T13:41:21.623Z,18.61
2023-04-28T13:43:54.684Z,18.58
2023-04-28T13:46:27.920Z,18.53
2023-04-28T13:49:01.076Z,18.47
2023-04-28T13:51:34.300Z,18.40
2023-04-28T13:54:11.729Z,18.38
2023-04-28T13:56:44.638Z,18.31
2023-04-28T13:59:17.565Z,18.21
2023-04-28T14:01:50.664Z,18.08
2023-04-28T14:04:23.546Z,18.03
2023-04-28T14:06:56.803Z,18.03
2023-04-28T14:09:29.738Z,18.00
2023-04-28T14:12:03.285Z,17.97
2023-04-28T14:14:38.974Z,17.94
2023-04-28T14:17:12.834Z,17.95
2023-04-28T14:19:47.158Z,17.93
2023-04-28T14:22:19.117Z,17.89
2023-04-28T14:24:51.933Z,17.85
2023-04-28T14:27:25.411Z,17.80
2023-04-28T14:29:58.274Z,17.76
2023-04-28T14:32:31.364Z,17.74
2023-04-28T14:35:05.850Z,17.73
2023-04-28T14:37:39.256Z,17.72
2023-04-28T14:40:12.780Z,17.72
2023-04-28T14:42:45.885Z,17.72
2023-04-28T14:45:18.996Z,17.68
2023-04-28T14:47:52.569Z,17.67
2023-04-28T14:50:25.364Z,17.67
2023-04-28T14:52:59.989Z,17.71
2023-04-28T14:55:33.191Z,17.73
2023-04-28T14:58:05.854Z,17.74
2023-04-28T15:00:38.705Z,17.72
2023-04-28T15:03:11.737Z,17.67
2023-04-28T15:05:44.767Z,17.67
2023-04-28T15:08:17.963Z,17.67
2023-04-28T15:10:50.851Z,17.66
2023-04-28T15:13:25.503Z,17.66
2023-04-28T15:15:58.381Z,17.62
2023-04-28T15:18:31.455Z,17.56
2023-04-28T15:21:04.843Z,17.53
2023-04-28T15:23:38.213Z,17.52
2023-04-28T15:26:11.208Z,17.52
2023-04-28T15:28:43.964Z,17.50
2023-04-28T15:31:17.341Z,17.50
2023-04-28T15:33:50.544Z,17.50
2023-04-28T15:36:23.459Z,17.48
2023-04-28T15:38:56.925Z,17.47
2023-04-28T15:41:29.885Z,17.49
2023-04-28T15:44:03.420Z,17.52
2023-04-28T15:46:38.550Z,17.49
2023-04-28T15:49:12.103Z,17.47
2023-04-28T15:51:45.928Z,17.44
2023-04-28T15:54:18.761Z,17.39
2023-04-28T15:56:52.018Z,17.36
2023-04-28T15:59:25.321Z,17.31
2023-04-28T16:01:58.265Z,17.27
2023-04-28T16:04:31.637Z,17.23
2023-04-28T16:07:06.308Z,17.19
2023-04-28T16:09:40.263Z,17.13
2023-04-28T16:12:13.206Z,17.07
2023-04-28T16:14:46.364Z,17.01
2023-04-28T16:17:19.117Z,16.98
2023-04-28T16:19:52.668Z,16.95
2023-04-28T16:22:28.387Z,16.92
2023-04-28T16:25:02.316Z,16.88
2023-04-28T16:27:36.131Z,16.86
2023-04-28T16:30:10.663Z,16.82
2023-04-28T16:32:43.727Z,16.80
2023-04-28T16:35:16.671Z,16.79
2023-04-28T16:37:49.667Z,16.76
2023-04-28T16:40:22.791Z,16.71
2023-04-28T16:42:56.210Z,16.67
2023-04-28T16:45:29.702Z,16.66
2023-04-28T16:48:02.735Z,16.64
2023-04-28T16:50:36.570Z,16.62
2023-04-28T16:53:10.532Z,16.60
2023-04-28T16:55:43.626Z,16.60
2023-04-28T16:58:16.597Z,16.58
2023-04-28T17:00:49.649Z,16.54
2023-04-28T17:03:24.722Z,16.54
2023-04-28T17:05:57.678Z,16.56
2023-04-28T17:08:30.472Z,16.56
2023-04-28T17:11:05.836Z,16.56
2023-04-28T17:13:38.644Z,16.53
2023-04-28T17:16:11.868Z,16.48
2023-04-28T17:18:45.254Z,16.45
2023-04-28T17:21:18.339Z,16.43
2023-04-28T17:23:51.407Z,16.42
2023-04-28T17:26:24.968Z,16.43
2023-04-28T17:28:59.112Z,16.48
2023-04-28T17:31:32.713Z,16.53
2023-04-28T17:34:05.397Z,16.57
2023-04-28T17:36:38.323Z,16.58
2023-04-28T17:39:11.001Z,16.58
2023-04-28T17:41:45.351Z,16.56
2023-04-28T17:44:17.273Z,16.53
2023-04-28T17:46:50.295Z,16.53
2023-04-28T17:49:23.383Z,16.51
2023-04-28T17:51:56.734Z,16.51
2023-04-28T17:54:29.658Z,16.48
2023-04-28T17:57:03.068Z,16.44
2023-04-28T17:59:36.116Z,16.42
2023-04-28T18:02:13.307Z,16.42
2023-04-28T18:04:47.243Z,16.42
2023-04-28T18:07:19.989Z,16.42
2023-04-28T18:09:53.278Z,16.42
2023-04-28T18:12:27.011Z,16.43
2023-04-28T18:14:59.809Z,16.43
2023-04-28T18:17:33.553Z,16.39
2023-04-28T18:20:08.029Z,16.36
2023-04-28T18:22:41.788Z,16.32
2023-04-28T18:25:17.188Z,16.33
2023-04-28T18:27:50.082Z,16.33
2023-04-28T18:30:23.624Z,16.36
2023-04-28T18:32:56.766Z,16.38
2023-04-28T18:35:29.696Z,16.36
2023-04-28T18:38:03.117Z,16.34
2023-04-28T18:40:40.943Z,16.33
2023-04-28T18:43:14.527Z,16.28
2023-04-28T18:45:47.296Z,16.22
2023-04-28T18:48:20.984Z,16.17
2023-04-28T18:50:54.198Z,16.12
2023-04-28T18:53:27.379Z,16.08
2023-04-28T18:56:00.530Z,16.04
2023-04-28T18:58:33.606Z,16.00
2023-04-28T19:01:06.899Z,16.02
2023-04-28T19:03:40.327Z,16.06
2023-04-28T19:06:14.318Z,16.07
2023-04-28T19:08:47.679Z,16.07
2023-04-28T19:11:20.759Z,16.10
2023-04-28T19:13:54.977Z,16.12
2023-04-28T19:16:28.000Z,16.13
2023-04-28T19:19:01.029Z,16.12
2023-04-28T19:21:43.562Z,16.09
2023-04-28T19:24:16.626Z,16.07
2023-04-28T19:26:49.856Z,16.05
2023-04-28T19:29:23.172Z,16.03
2023-04-28T19:31:56.402Z,16.01
2023-04-28T19:34:29.525Z,15.94
2023-04-28T19:37:02.962Z,15.83
2023-04-28T19:39:36.676Z,15.75
2023-04-28T19:42:10.296Z,15.69
2023-04-28T19:44:43.452Z,15.64
2023-04-28T19:47:24.654Z,15.58
2023-04-28T19:49:58.050Z,15.51
2023-04-28T19:52:30.923Z,15.43
2023-04-28T19:55:04.387Z,15.40
2023-04-28T19:57:37.512Z,15.37
2023-04-28T20:00:12.515Z,15.34
2023-04-28T20:02:46.170Z,15.26
2023-04-28T20:05:20.842Z,15.15
2023-04-28T20:07:56.505Z,15.07
2023-04-28T20:10:29.842Z,15.01
2023-04-28T20:13:03.102Z,14.95
2023-04-28T20:15:36.519Z,14.88
2023-04-28T20:18:09.518Z,14.82
2023-04-28T20:20:44.042Z,14.75
2023-04-28T20:23:16.124Z,14.72
2023-04-28T20:25:48.999Z,14.73
2023-04-28T20:28:22.451Z,14.74
2023-04-28T20:30:55.519Z,14.69
2023-04-28T20:33:28.924Z,14.62
2023-04-28T20:36:02.079Z,14.60
2023-04-28T20:38:35.296Z,14.59
2023-04-28T20:41:08.938Z,14.58
2023-04-28T20:43:42.405Z,14.54
2023-04-28T20:46:16.127Z,14.50
2023-04-28T20:48:49.711Z,14.48
2023-04-28T20:51:22.585Z,14.46
2023-04-28T20:53:55.799Z,14.46
2023-04-28T20:56:28.669Z,14.41
2023-04-28T20:59:01.951Z,14.36
2023-04-28T21:01:35.045Z,14.36
2023-04-28T21:04:09.093Z,14.33
2023-04-28T21:06:42.354Z,14.24
2023-04-28T21:09:15.540Z,14.17
2023-04-28T21:11:48.858Z,14.15
2023-04-28T21:14:22.499Z,14.13
2023-04-28T21:16:55.294Z,14.07
2023-04-28T21:19:29.205Z,13.96
2023-04-28T21:22:02.388Z,13.85
2023-04-28T21:24:35.277Z,13.75
2023-04-28T21:27:08.068Z,13.67
2023-04-28T21:29:41.254Z,13.66
2023-04-28T21:32:14.279Z,13.61
2023-04-28T21:34:49.820Z,13.57
2023-04-28T21:37:22.734Z,13.59
2023-04-28T21:39:58.377Z,13.62
2023-04-28T21:42:32.274Z,13.61
2023-04-28T21:45:06.094Z,13.61
2023-04-28T21:47:42.063Z,13.68
2023-04-28T21:50:14.293Z,13.71
2023-04-28T21:52:47.203Z,13.71
2023-04-28T21:55:20.626Z,13.71
2023-04-28T21:57:54.422Z,13.70
2023-04-28T22:00:28.330Z,13.76
2023-04-28T22:03:01.632Z,13.82
2023-04-28T22:05:35.740Z,13.87
2023-04-28T22:08:08.712Z,13.95
2023-04-28T22:10:42.072Z,14.01
2023-04-28T22:13:17.738Z,14.03
2023-04-28T22:15:50.895Z,14.04
2023-04-28T22:18:23.918Z,14.01
2023-04-28T22:20:56.832Z,13.98
2023-04-28T22:23:29.902Z,13.93
2023-04-28T22:26:02.964Z,13.84
2023-04-28T22:28:35.961Z,13.78
2023-04-28T22:31:09.307Z,13.75
2023-04-28T22:33:42.351Z,13.75
2023-04-28T22:36:15.093Z,13.75
2023-04-28T22:38:47.908Z,13.76
2023-04-28T22:41:20.819Z,13.78
2023-04-28T22:43:53.760Z,13.78
2023-04-28T22:46:26.674Z,13.70
2023-04-28T22:48:59.654Z,13.60
2023-04-28T22:51:32.928Z,13.53
2023-04-28T22:54:05.894Z,13.46
2023-04-28T22:56:38.729Z,13.38
2023-04-28T22:59:11.655Z,13.31
2023-04-28T23:01:44.717Z,13.29
2023-04-28T23:04:18.339Z,13.29
2023-04-28T23:06:51.196Z,13.27
2023-04-28T23:09:24.253Z,13.29
2023-04-28T23:11:57.322Z,13.32
2023-04-28T23:14:30.653Z,13.36
2023-04-28T23:17:03.485Z,13.41
2023-04-28T23:19:38.874Z,13.43
2023-04-28T23:22:11.866Z,13.42
2023-04-28T23:24:44.823Z,13.43
2023-04-28T23:27:18.012Z,13.47
2023-04-28T23:29:51.250Z,13.48
2023-04-28T23:32:24.662Z,13.46
2023-04-28T23:34:57.662Z,13.43
2023-04-28T23:37:30.623Z,13.45
2023-04-28T23:40:04.834Z,13.46
2023-04-28T23:42:39.829Z,13.48
2023-04-28T23:45:13.478Z,13.47
2023-04-28T23:47:46.373Z,13.43
2023-04-28T23:50:19.933Z,13.39
2023-04-28T23:52:52.854Z,13.41
2023-04-28T23:55:25.675Z,13.44
2023-04-28T23:57:58.467Z,13.46
